Tiempo atmosférico en la estación meteorológica de Valencia De Alcántara, Cáceres (445 m.)



Fecha
DESCASC
Temp. máxima en grados centígrados (hora)
DESCASC
Temp. mínima en grados centígrados (hora)
DESCASC
Temp. media en grados centígrados
DESCASC
Racha de viento máxima en m/sg (hora)
DESCASC
Velocidad máxima media en intervalos de 10 minutos(hora)
DESCASC
Precipitaciones diarias en mm
DESCASC
Precipitaciones de 00:00 a 06:00 en mm
DESCASC
Precipitaciones de 06:00 a 12:00 en mm
DESCASC
Precipitaciones de 12:00 a 18:00 en mm
DESCASC
Precipitaciones de 18:00 a 24:00 en mm
DESCASC
22-08-2019 35.5 (18:20) 18.9 (07:10) 27.2 10.28 (16:40) 4.72 (15:10) 0 0 0 0 0
21-08-2019 34.6 (17:30) 16.8 (07:50) 25.7 7.78 (18:20) 4.17 (10:30) 0 0 0 0 0
20-08-2019 33.3 (18:20) 14.8 (05:20) 24 8.89 (13:50) 3.89 (14:50) 0 0 0 0 0
19-08-2019 30.6 (16:40) 13.9 (06:40) 22.3 10.28 (19:10) 6.11 (19:10) 0.2 0 0.2 0 0
18-08-2019 31 (17:20) 14.5 (00:00) 22.8 11.67 (20:20) 7.78 (19:10) 0 0 0 0 0
17-08-2019 36.9 (17:40) 17 (00:00) 27 10 (20:20) 5.83 (20:20) 0 0 0 0 0
16-08-2019 36.3 (18:10) 20.7 (00:00) 28.5 10 (18:50) 5.83 (18:50) 0 0 0 0 0
15-08-2019 -- (--) -- (--) -- -- (--) -- (--) -- -- -- -- --
14-08-2019 -- (--) -- (--) -- -- (--) -- (--) -- 0 0 -- --
13-08-2019 32.4 (18:00) 13 (00:00) 22.7 12.22 (17:20) 3.89 (11:20) 0 0 0 0 0
12-08-2019 28.9 (18:50) 13.2 (00:00) 21 11.11 (17:10) 5.28 (19:50) 0 0 0 0 0
11-08-2019 26.1 (17:30) 13.9 (00:00) 20 13.61 (16:40) 7.22 (20:50) 0 0 0 0 0
10-08-2019 29.5 (18:10) 14.6 (00:00) 22.1 14.17 (21:40) 7.78 (21:40) 0 0 0 0 0
09-08-2019 25.3 (19:00) 19.8 (00:00) 22.5 10.83 (14:30) 6.39 (14:30) 0 0 0 0 0
08-08-2019 30.9 (17:30) 19.3 (00:00) 25.1 12.22 (18:50) 6.11 (21:30) 0 0 0 0 0
07-08-2019 27.8 (19:40) 18.4 (00:00) 23.1 8.33 (02:20) 5.56 (02:30) 1.2 0 0.8 0.4 0
06-08-2019 32.4 (15:50) 15.5 (00:00) 24 10 (16:40) 6.39 (18:10) 0 0 0 0 0
05-08-2019 33.9 (17:10) 13.6 (00:00) 23.8 8.89 (21:10) 5 (19:20) 0 0 0 0 0
04-08-2019 33.2 (17:00) 17.1 (00:00) 25.2 10.56 (18:50) 6.67 (18:00) 0 0 0 0 0
03-08-2019 34.9 (17:30) 17.2 (00:00) 26.1 11.11 (20:30) 6.67 (20:40) 0 0 0 0 0
02-08-2019 35 (19:30) 13.4 (00:00) 24.2 10 (21:40) 5.56 (21:00) 0 0 0 0 0
01-08-2019 32.8 (16:50) 16.8 (00:00) 24.8 12.22 (18:10) 6.39 (18:40) 0 0 0 0 0
31-07-2019 33.9 (17:50) 14.5 (00:00) 24.2 12.5 (18:30) 6.39 (18:50) 0 0 0 0 0
30-07-2019 30.7 (19:40) 13.6 (00:00) 22.2 10.56 (16:00) 5.56 (20:40) 0 0 0 0 0
29-07-2019 29 (16:40) 16.6 (00:00) 22.8 12.5 (17:50) 7.5 (20:40) 0 0 0 0 0
28-07-2019 31.4 (17:00) 15.8 (00:00) 23.6 10.56 (21:50) 6.11 (21:50) 0 0 0 0 0
27-07-2019 25.8 (17:20) 14.9 (00:00) 20.3 14.72 (04:40) 8.06 (04:00) 0 0 0 0 0
26-07-2019 27.3 (17:20) 15.2 (00:00) 21.2 11.94 (18:10) 6.94 (18:20) 0 0 0 0 0
25-07-2019 31.4 (18:50) 20.4 (00:00) 25.9 11.67 (20:30) 7.78 (20:30) 0 0 0 0 0
24-07-2019 36.2 (17:10) 19.6 (00:00) 27.9 11.11 (21:10) 6.39 (20:50) 0.2 0 0.2 0 0

Gráficas

Temp. máximas Temp. mínimas Temp. medias Precipitaciones Rachas de viento máximas Velocidades máximas media en intervalos de 10 minutos

Datos horarios

Fecha y hora oficial Temperatura (ºC) Velocidad del viento (km/h) Dirección del viento Racha (km/h) Dirección de racha Precipitación (mm) Presión (hPa) Tendencia (hPa) Humedad (%)
2019-08-22 23:00:00 27.4 5 Sur 9 Oeste 0 965.1 0.8 28
2019-08-22 22:00:00 30.7 6 Sudeste 10 Este 0 964.7 0.1 22
2019-08-22 21:00:00 33.2 6 Este 27 Nordeste 0 964.5 -0.4 19
2019-08-22 20:00:00 34.2 10 Este 22 Nordeste 0 964.3 -1 18
2019-08-22 19:00:00 34.9 10 Este 26 Sudeste 0 964.6 -1.3 18
2019-08-22 18:00:00 35.2 12 Sudeste 32 Nordeste 0 964.9 -1.4 19
2019-08-22 17:00:00 33.4 13 Nordeste 37 Este 0 965.3 -1.5 23
2019-08-22 16:00:00 33.4 12 Este 30 Nordeste 0 965.9 -1.4 24
2019-08-22 15:00:00 33.8 5 Este 30 Este 0 966.3 -1.3 26
2019-08-22 14:00:00 32.6 10 Este 32 Nordeste 0 966.8 -0.7 29
2019-08-22 13:00:00 31.1 13 Este 29 Este 0 967.3 -0.1 37
2019-08-22 12:00:00 29.2 16 Este 32 Este 0 967.6 0.5 42
2019-08-22 11:00:00 27.3 13 Este 21 Nordeste 0 967.5 1 48
2019-08-22 10:00:00 24.8 7 Este 15 Nordeste 0 967.4 1.2 55
2019-08-22 09:00:00 22.1 4 Este 12 Este 0 967.1 1.1 64
2019-08-22 08:00:00 19.3 3 Sur 9 Este 0 966.5 0.3 61
2019-08-22 07:00:00 19 3 Sur 9 Sudoeste 0 966.2 0.1 51
2019-08-22 06:00:00 19.4 5 Sudeste 13 Sudeste 0 966 -0.1 49
2019-08-22 05:00:00 20.2 4 Sur 9 Sur 0 966.2 -0.1 46
2019-08-22 04:00:00 20.6 6 Sudoeste 10 Sudoeste 0 966.1 0 44
2019-08-22 03:00:00 22.2 5 Sur 8 Sur 0 966.1 0.4 40
2019-08-22 02:00:00 23.6 8 Oeste 13 Noroeste 0 966.3 0.9 37
2019-08-22 01:00:00 23.4 6 Sur 11 Sudeste 0 966.1 1.3 37
2019-08-22 00:00:00 24.2 5 Sudoeste 9 Sudoeste 0 965.7 1.2 35
2019-08-21 23:00:00 26.5 4 Sur 6 Este 0 965.4 1.2 32
2019-08-21 22:00:00 29.8 4 Nordeste 13 Nordeste 0 964.8 0.4 25
2019-08-21 21:00:00 31.6 7 Norte 17 Norte 0 964.5 0.1 23
2019-08-21 20:00:00 32.4 14 Norte 24 Norte 0 964.2 -0.5 22
2019-08-21 19:00:00 33.7 7 Este 28 Oeste 0 964.4 -1 19
2019-08-21 18:00:00 34.1 11 Norte 26 Norte 0 964.4 -1.4 19
2019-08-21 17:00:00 34.1 9 Sudeste 20 Sur 0 964.7 -1.3 18
2019-08-21 16:00:00 33 8 Norte 23 Norte 0 965.4 -1.2 23
2019-08-21 15:00:00 32.5 4 Sudeste 23 Norte 0 965.8 -0.8 21
2019-08-21 14:00:00 30.6 7 Noroeste 17 Nordeste 0 966 -0.5 32
2019-08-21 13:00:00 29.4 6 Nordeste 19 Este 0 966.6 0.2 36
2019-08-21 12:00:00 27.6 9 Este 21 Este 0 966.6 0.4 42
2019-08-21 11:00:00 25.8 10 Este 26 Nordeste 0 966.5 0.6 49
2019-08-21 10:00:00 23.4 6 Nordeste 14 Este 0 966.4 1 54
2019-08-21 09:00:00 18 5 Sur 9 Sur 0 966.2 1.1 52
2019-08-21 08:00:00 16.8 6 Sur 8 Sur 0 965.9 0.8 53
2019-08-21 07:00:00 16.9 6 Sudoeste 8 Sudoeste 0 965.4 0.3 52
2019-08-21 06:00:00 17.3 6 Sur 9 Sur 0 965.1 0 50
2019-08-21 05:00:00 18.2 6 Sur 10 Sudoeste 0 965.1 0.1 47
2019-08-21 04:00:00 18.2 6 Sudoeste 9 Sudoeste 0 965.1 0 48
2019-08-21 03:00:00 19.1 7 Sur 9 Sur 0 965.1 0.2 46
2019-08-21 02:00:00 20 6 Sur 7 Sur 0 965 0 44
2019-08-21 01:00:00 21.3 4 Sur 9 Sur 0 965.1 0.7 40
2019-08-21 00:00:00 24 6 Sur 13 Sur 0 964.9 0.7 39
2019-08-20 23:00:00 25.5 7 Sudoeste 15 Sudoeste 0 965 1 30
2019-08-20 22:00:00 28.5 5 Sudeste 13 Nordeste 0 964.4 0.3 21
2019-08-20 21:00:00 31.2 6 Nordeste 21 Nordeste 0 964.2 -0.1 19
2019-08-20 20:00:00 32.5 6 Nordeste 19 Este 0 964 -0.7 19
2019-08-20 19:00:00 32.5 8 Este 24 Nordeste 0 964.1 -1.2 19
2019-08-20 18:00:00 32.9 8 Este 22 Este 0 964.3 -1.4 17
2019-08-20 17:00:00 31.8 10 Nordeste 25 Nordeste 0 964.7 -1.5 17
2019-08-20 16:00:00 31.8 9 Nordeste 23 Norte 0 965.3 -1.1 20
2019-08-20 15:00:00 30.1 10 Norte 28 Norte 0 965.7 -0.7 27
2019-08-20 14:00:00 28.6 12 Norte 32 Noroeste 0 966.2 0.1 32
2019-08-20 13:00:00 26.4 11 Norte 22 Noroeste 0 966.4 0.5 38
2019-08-20 12:00:00 23.9 6 Noroeste 19 Norte 0 966.4 1 46
2019-08-20 11:00:00 20.9 9 Noroeste 18 Noroeste 0 966.1 1.2 55
2019-08-20 10:00:00 18.8 10 Oeste 19 Noroeste 0 965.9 1.4 61
2019-08-20 09:00:00 17.4 9 Oeste 15 Oeste 0 965.4 1.1 67
2019-08-20 08:00:00 16 8 Sudoeste 17 Sudoeste 0 964.9 0.8 70
2019-08-20 07:00:00 15.6 6 Sudoeste 10 Sudoeste 0 964.5 0.6 69
2019-08-20 06:00:00 15.4 6 Sudoeste 10 Sudoeste 0 964.3 0.1 68
2019-08-20 05:00:00 15.3 2 Noroeste 8 Noroeste 0 964.1 -0.4 71
2019-08-20 04:00:00 15.8 4 Noroeste 11 Oeste 0 963.9 -0.9 68
2019-08-20 03:00:00 17.4 8 Oeste 12 Oeste 0 964.2 -0.4 60
2019-08-20 02:00:00 17.7 7 Oeste 24 Oeste 0 964.5 0 61
2019-08-20 01:00:00 18.4 11 Oeste 26 Oeste 0 964.8 0.7 58
2019-08-20 00:00:00 18.9 13 Oeste 31 Oeste 0 964.6 0.9 57
2019-08-19 23:00:00 20.5 13 Oeste 34 Oeste 0 964.5 0.8 52
2019-08-19 22:00:00 21.8 19 Oeste 35 Oeste 0 964.1 0.5 48
2019-08-19 21:00:00 23.5 17 Oeste 34 Sudoeste 0 963.7 0.1 37
2019-08-19 20:00:00 24.8 20 Oeste 37 Oeste 0 963.7 0.1 31
2019-08-19 19:00:00 27.5 17 Oeste 33 Oeste 0 963.6 -0.4 25
2019-08-19 18:00:00 29.2 18 Oeste 30 Oeste 0 963.6 -0.9 18
2019-08-19 17:00:00 29.7 14 Oeste 32 Oeste 0 963.6 -1.2 18
2019-08-19 16:00:00 29.7 13 Oeste 28 Sudoeste 0 964 -1 19
2019-08-19 15:00:00 28.5 11 Noroeste 29 Noroeste 0 964.5 -0.3 22
2019-08-19 14:00:00 27.8 12 Noroeste 27 Oeste 0 964.8 0.1 31
2019-08-19 13:00:00 25.8 7 Noroeste 18 Noroeste 0 965 -- 42
2019-08-19 12:00:00 23.7 5 Noroeste 16 Noroeste 0.2 964.8 -- 49
2019-08-19 11:00:00 21.1 6 Noroeste -- -- -- 964.7 -- 57
2019-08-19 10:00:00 -- -- -- -- -- -- -- -- --
2019-08-19 09:00:00 -- -- -- -- -- -- -- -- --
2019-08-19 08:00:00 -- -- -- -- -- -- -- -- --
2019-08-19 07:00:00 -- -- -- -- -- -- -- -- --
2019-08-19 06:00:00 -- -- -- -- -- -- -- -- --
2019-08-19 05:00:00 -- -- -- -- -- -- -- -- --
2019-08-19 04:00:00 -- -- -- -- -- -- -- -- --
2019-08-19 03:00:00 -- -- -- -- -- -- -- -- --
2019-08-19 02:00:00 -- -- -- -- -- -- -- -- --
2019-08-19 01:00:00 -- -- -- -- -- -- -- -- --
2019-08-19 00:00:00 -- -- -- -- -- -- -- -- --
2019-08-18 23:00:00 -- -- -- -- -- -- -- -- --
2019-08-18 22:00:00 -- -- -- -- -- -- -- -- --
2019-08-18 21:00:00 -- -- -- -- -- -- -- -- --
2019-08-18 20:00:00 -- -- -- -- -- -- -- -- --
2019-08-18 19:00:00 -- -- -- -- -- -- -- -- --
2019-08-18 18:00:00 -- -- -- -- -- -- -- -- --
2019-08-18 17:00:00 -- -- -- -- -- -- -- -- --
2019-08-18 16:00:00 -- -- -- -- -- -- -- -- --
2019-08-18 15:00:00 -- -- -- -- -- -- -- -- --
2019-08-18 14:00:00 -- -- -- -- -- -- -- -- --
2019-08-18 13:00:00 -- -- -- -- -- -- -- -- --
2019-08-18 12:00:00 -- -- -- -- -- -- -- -- --
2019-08-18 11:00:00 -- -- -- -- -- -- -- -- --
2019-08-18 10:00:00 -- -- -- -- -- -- -- -- --
2019-08-18 09:00:00 -- -- -- -- -- -- -- -- --
2019-08-18 08:00:00 -- -- -- -- -- -- -- -- --
2019-08-18 07:00:00 -- -- -- -- -- -- -- -- --
2019-08-18 06:00:00 -- -- -- -- -- -- -- -- --
2019-08-18 05:00:00 -- -- -- -- -- -- -- -- --
2019-08-18 04:00:00 -- -- -- -- -- -- -- -- --
2019-08-18 03:00:00 -- -- -- -- -- -- -- -- --
2019-08-18 02:00:00 -- -- -- -- -- -- -- -- --
2019-08-18 01:00:00 -- -- -- -- -- -- -- -- --
2019-08-18 00:00:00 -- -- -- -- -- -- -- -- --
2019-08-17 23:00:00 -- -- -- -- -- -- -- -- --
2019-08-17 22:00:00 -- -- -- -- -- -- -- -- --
2019-08-17 21:00:00 -- -- -- -- -- -- -- -- --
2019-08-17 20:00:00 -- -- -- -- -- -- -- -- --
2019-08-17 19:00:00 -- -- -- -- -- -- -- -- --
2019-08-17 18:00:00 -- -- -- -- -- -- -- -- --
2019-08-17 17:00:00 -- -- -- -- -- -- -- -- --
2019-08-17 16:00:00 -- -- -- -- -- -- -- -- --
2019-08-17 15:00:00 -- -- -- -- -- -- -- -- --
2019-08-17 14:00:00 -- -- -- -- -- -- -- -- --
2019-08-17 13:00:00 -- -- -- -- -- -- -- -- --
2019-08-17 12:00:00 -- -- -- -- -- -- -- -- --
2019-08-17 11:00:00 -- -- -- -- -- -- -- -- --
2019-08-17 10:00:00 -- -- -- -- -- -- -- -- --
2019-08-17 09:00:00 -- -- -- -- -- -- -- -- --
2019-08-17 08:00:00 -- -- -- -- -- -- -- -- --
2019-08-17 07:00:00 -- -- -- -- -- -- -- -- --
2019-08-17 06:00:00 -- -- -- -- -- -- -- -- --
2019-08-17 05:00:00 -- -- -- -- -- -- -- -- --
2019-08-17 04:00:00 -- -- -- -- -- -- -- -- --
2019-08-17 03:00:00 -- -- -- -- -- -- -- -- --
2019-08-17 02:00:00 -- -- -- -- -- -- -- -- --
2019-08-17 01:00:00 -- -- -- -- -- -- -- -- --
2019-08-17 00:00:00 -- -- -- -- -- -- -- -- --
2019-08-16 23:00:00 -- -- -- -- -- -- -- -- --
2019-08-16 22:00:00 -- -- -- -- -- -- -- -- --
2019-08-16 21:00:00 -- -- -- -- -- -- -- -- --
2019-08-16 20:00:00 -- -- -- -- -- -- -- -- --
2019-08-16 19:00:00 -- -- -- -- -- -- -- -- --
2019-08-16 18:00:00 -- -- -- -- -- -- -- -- --
2019-08-16 17:00:00 -- -- -- -- -- -- -- -- --
2019-08-16 16:00:00 -- -- -- -- -- -- -- -- --
2019-08-16 15:00:00 -- -- -- -- -- -- -- -- --
2019-08-16 14:00:00 -- -- -- -- -- -- -- -- --
2019-08-16 13:00:00 -- -- -- -- -- -- -- -- --
2019-08-16 12:00:00 -- -- -- -- -- -- -- -- --
2019-08-16 11:00:00 -- -- -- -- -- -- -- -- --
2019-08-16 10:00:00 -- -- -- -- -- -- -- -- --
2019-08-16 09:00:00 -- -- -- -- -- -- -- -- --
2019-08-16 08:00:00 -- -- -- -- -- -- -- -- --
2019-08-16 07:00:00 -- -- -- -- -- -- -- -- --
2019-08-16 06:00:00 -- -- -- -- -- -- -- -- --
2019-08-16 05:00:00 -- -- -- -- -- -- -- -- --
2019-08-16 04:00:00 -- -- -- -- -- -- -- -- --
2019-08-16 03:00:00 -- -- -- -- -- -- -- -- --
2019-08-16 02:00:00 -- -- -- -- -- -- -- -- --
2019-08-16 01:00:00 -- -- -- -- -- -- -- -- --
2019-08-16 00:00:00 -- -- -- -- -- -- -- -- --
2019-08-15 23:00:00 -- -- -- -- -- -- -- -- --
2019-08-15 22:00:00 -- -- -- -- -- -- -- -- --
2019-08-15 21:00:00 -- -- -- -- -- -- -- -- --
2019-08-15 20:00:00 -- -- -- -- -- -- -- -- --
2019-08-15 19:00:00 -- -- -- -- -- -- -- -- --
2019-08-15 18:00:00 -- -- -- -- -- -- -- -- --
2019-08-15 17:00:00 -- -- -- -- -- -- -- -- --
2019-08-15 16:00:00 -- -- -- -- -- -- -- -- --
2019-08-15 15:00:00 -- -- -- -- -- -- -- -- --
2019-08-15 14:00:00 -- -- -- -- -- -- -- -- --
2019-08-15 13:00:00 -- -- -- -- -- -- -- -- --
2019-08-15 12:00:00 -- -- -- -- -- -- -- -- --
2019-08-15 11:00:00 -- -- -- -- -- -- -- -- --
2019-08-15 10:00:00 -- -- -- -- -- -- -- -- --
2019-08-15 09:00:00 -- -- -- -- -- -- -- -- --
2019-08-15 08:00:00 -- -- -- -- -- -- -- -- --
2019-08-15 07:00:00 -- -- -- -- -- -- -- -- --
2019-08-15 06:00:00 -- -- -- -- -- -- -- -- --
2019-08-15 05:00:00 -- -- -- -- -- -- -- -- --
2019-08-15 04:00:00 -- -- -- -- -- -- -- -- --
2019-08-15 03:00:00 -- -- -- -- -- -- -- -- --
2019-08-15 02:00:00 -- -- -- -- -- -- -- -- --
2019-08-15 01:00:00 -- -- -- -- -- -- -- -- --
2019-08-15 00:00:00 -- -- -- -- -- -- -- -- --
2019-08-14 23:00:00 -- -- -- -- -- -- -- -- --
2019-08-14 22:00:00 -- -- -- -- -- -- -- -- --
2019-08-14 21:00:00 -- -- -- -- -- -- -- -- --
2019-08-14 20:00:00 -- -- -- -- -- -- -- -- --
2019-08-14 19:00:00 -- -- -- -- -- -- -- -- --
2019-08-14 18:00:00 -- -- -- -- -- -- -- -- --
2019-08-14 17:00:00 -- -- -- -- -- -- -- -- --
2019-08-14 16:00:00 -- -- -- -- -- -- -- -- --
2019-08-14 15:00:00 -- -- -- -- -- -- -- -- --
2019-08-14 14:00:00 -- -- -- -- -- -- -- -- --
2019-08-14 13:00:00 -- -- -- -- -- -- -- -- --
2019-08-14 12:00:00 28.3 6 Noroeste 15 Norte 0 968.7 0.6 24
2019-08-14 11:00:00 26.2 6 Norte 11 Nordeste 0 968.5 0.7 28
2019-08-14 10:00:00 22.8 5 Oeste 10 Noroeste 0 968.6 1.3 39
2019-08-14 09:00:00 17.9 6 Sur 10 Sudoeste 0 968.1 0.7 51
2019-08-14 08:00:00 15.5 8 Sudoeste 11 Sudoeste 0 967.8 0.2 56
2019-08-14 07:00:00 16 6 Sudoeste 9 Sudoeste 0 967.3 -0.3 56
2019-08-14 06:00:00 16.4 8 Sur 11 Sur 0 967.4 -0.3 57
2019-08-14 05:00:00 17.7 8 Sur 12 Sudoeste 0 967.6 0 54
2019-08-14 04:00:00 18.5 6 Sur 10 Sur 0 967.6 0.1 52
2019-08-14 03:00:00 19.7 6 Sur 10 Sur 0 967.7 0.4 49
2019-08-14 02:00:00 21 5 Sur 9 Sudoeste 0 967.6 0.7 46
2019-08-14 01:00:00 22.4 4 Sudoeste 16 Oeste 0 967.5 1.4 43
2019-08-14 00:00:00 23.7 8 Oeste 19 Oeste 0 967.3 1.6 40
2019-08-13 23:00:00 25.5 12 Oeste 24 Oeste 0 966.9 1.4 37
2019-08-13 22:00:00 27.5 10 Noroeste 17 Noroeste 0 966.1 0.5 22
2019-08-13 21:00:00 30.5 9 Noroeste 20 Noroeste 0 965.7 -0.1 15
2019-08-13 20:00:00 31.6 11 Norte 22 Norte 0 965.5 -0.8 13
2019-08-13 19:00:00 31.8 10 Noroeste 22 Noroeste 0 965.6 -1.2 14
2019-08-13 18:00:00 31.7 8 Norte 44 Oeste 0 965.8 -1.4 15
2019-08-13 17:00:00 31.6 9 Noroeste 25 Norte 0 966.3 -1.5 15
2019-08-13 16:00:00 30.5 11 Nordeste 23 Norte 0 966.8 -1.2 17
2019-08-13 15:00:00 29.7 10 Norte 28 Nordeste 0 967.2 -0.9 19
2019-08-13 14:00:00 28.5 8 Norte -- -- 0 967.8 0 22
2019-08-13 13:00:00 26.9 8 Nordeste 22 Norte 0 968 0.3 25
2019-08-13 12:00:00 24.5 11 Nordeste 25 Nordeste 0 968.1 0.5 28
2019-08-13 11:00:00 22.7 13 Nordeste 23 Nordeste 0 967.8 0.7 32
2019-08-13 10:00:00 19.5 6 Oeste 11 Oeste 0 967.7 0.9 41
2019-08-13 09:00:00 15.4 5 Sudoeste 11 Sudoeste 0 967.6 1 54
2019-08-13 08:00:00 13.2 6 Sur 10 Sudoeste 0 967.1 0.1 58
2019-08-13 07:00:00 14.2 5 Sudoeste 12 Sudoeste 0 966.8 -0.4 54
2019-08-13 06:00:00 15.2 6 Sudoeste 14 Oeste 0 966.6 -0.7 52
2019-08-13 05:00:00 15.9 9 Sudoeste 13 Sudoeste 0 967 -0.9 49
2019-08-13 04:00:00 16 8 Sudoeste 13 Sudoeste 0 967.2 -0.6 48
2019-08-13 03:00:00 17.7 6 Sudoeste 10 Sudoeste 0 967.3 -0.2 45
2019-08-13 02:00:00 19.8 7 Sudoeste 15 Oeste 0 967.9 0.9 38
2019-08-13 01:00:00 21.5 8 Oeste 18 Oeste 0 967.8 1.4 26
2019-08-13 00:00:00 22.3 8 Noroeste 14 Noroeste 0 967.5 1.5 25
2019-08-12 23:00:00 23 8 Noroeste 18 Noroeste 0 967 1.3 24
2019-08-12 22:00:00 24.6 10 Norte 23 Noroeste 0 966.4 0.6 20
2019-08-12 21:00:00 26.4 14 Norte 31 Noroeste 0 966 -0.1 17
2019-08-12 20:00:00 27.9 15 Noroeste 37 Norte 0 965.7 -0.9 16
2019-08-12 19:00:00 28.2 15 Noroeste 34 Norte 0 965.8 -1.4 15
2019-08-12 18:00:00 28.2 16 Norte -- -- 0 966.1 -1.7 15
2019-08-12 17:00:00 27.7 16 Oeste 31 Oeste 0 966.6 -1.6 17
2019-08-12 16:00:00 27.5 12 Norte 28 Norte 0 967.2 -1.6 17
2019-08-12 15:00:00 25.7 10 Norte -- -- 0 967.8 -1.2 21
2019-08-12 14:00:00 24.7 10 Noroeste 31 Noroeste 0 968.2 -0.6 25
2019-08-12 13:00:00 22.7 14 Norte 27 Noroeste 0 968.8 0.2 33
2019-08-12 12:00:00 20.8 13 Noroeste 30 Norte 0 969 0.6 39
2019-08-12 11:00:00 18.4 15 Noroeste 27 Noroeste 0 968.8 0.8 48
2019-08-12 10:00:00 16.1 14 Noroeste 26 Noroeste 0 968.6 0.9 58
2019-08-12 09:00:00 14.3 12 Noroeste 23 Noroeste 0 968.4 0.7 65
2019-08-12 08:00:00 13.2 13 Noroeste 25 Noroeste 0 968 0.1 70
2019-08-12 07:00:00 13.6 14 Noroeste 23 Noroeste 0 967.7 -0.4 68
2019-08-12 06:00:00 13.9 15 Noroeste 24 Oeste 0 967.7 -1.1 67
2019-08-12 05:00:00 14.3 15 Oeste 27 Oeste 0 967.9 -1.1 66
2019-08-12 04:00:00 14.8 17 Oeste 29 Oeste 0 968.1 -1.1 65
2019-08-12 03:00:00 14.9 10 Oeste 21 Oeste 0 968.8 -0.3 67
2019-08-12 02:00:00 15.5 11 Oeste 23 Oeste 0 969 0.3 66
2019-08-12 01:00:00 16.3 10 Oeste 23 Oeste 0 969.2 1.3 63
2019-08-12 00:00:00 17.2 12 Oeste 33 Oeste 0 969.1 1.9 56
2019-08-11 23:00:00 18.4 20 Noroeste 38 Noroeste 0 968.7 1.9 51
2019-08-11 22:00:00 20.1 19 Noroeste 42 Noroeste 0 967.9 1 41
2019-08-11 21:00:00 22.2 24 Oeste 45 Oeste 0 967.2 0.3 33
2019-08-11 20:00:00 24.4 18 Noroeste 43 Oeste 0 966.8 -0.3 27
2019-08-11 19:00:00 24.6 19 Noroeste 40 Oeste 0 966.9 -0.7 28
2019-08-11 18:00:00 25.8 19 Noroeste 37 Noroeste 0 966.9 -0.6 26
2019-08-11 17:00:00 25.5 18 Noroeste 49 Oeste 0 967.1 -0.8 27
2019-08-11 16:00:00 24.9 19 Noroeste 47 Oeste 0 967.6 -0.7 24
2019-08-11 15:00:00 23.7 20 Oeste 40 Oeste 0 967.5 -0.9 30
2019-08-11 14:00:00 23.1 23 Noroeste 44 Oeste 0 967.9 -0.1 31
2019-08-11 13:00:00 21.7 21 Noroeste 43 Oeste 0 968.3 0.8 37
2019-08-11 12:00:00 19.9 21 Oeste 39 Oeste 0 968.4 1.2 44
2019-08-11 11:00:00 18.1 18 Oeste 33 Oeste 0 968 1.2 52
2019-08-11 10:00:00 16.5 22 Noroeste 36 Oeste 0 967.5 1.5 58
2019-08-11 09:00:00 15 16 Oeste 27 Oeste 0 967.2 1 64
2019-08-11 08:00:00 13.9 18 Oeste 34 Oeste 0 966.8 0.6 70
2019-08-11 07:00:00 14 18 Oeste 33 Oeste 0 966 0 73
2019-08-11 06:00:00 14.5 17 Oeste 41 Oeste 0 966.2 0.2 73
2019-08-11 05:00:00 15.3 19 Oeste 32 Sudoeste 0 966.2 -0.6 69
2019-08-11 04:00:00 16.6 14 Oeste 26 Oeste 0 966 -0.8 66
2019-08-11 03:00:00 17.9 11 Oeste 28 Oeste 0 966 -0.6 59
2019-08-11 02:00:00 17.7 18 Oeste 35 Oeste 0 966.8 -0.1 59
2019-08-11 01:00:00 18 20 Oeste 36 Oeste 0 966.8 0.5 59
2019-08-11 00:00:00 18.8 16 Oeste 35 Oeste 0 966.6 0.7 57
2019-08-10 23:00:00 19.8 18 Oeste 40 Oeste 0 966.9 1.2 54
2019-08-10 22:00:00 21.1 24 Oeste 51 Oeste 0 966.3 0.5 54
2019-08-10 21:00:00 24.8 21 Oeste 40 Oeste 0 965.9 -0.1 36
2019-08-10 20:00:00 27.4 18 Oeste 32 Sudoeste 0 965.7 -0.9 31
2019-08-10 19:00:00 27.9 18 Oeste -- -- 0 965.8 -1.5 31
2019-08-10 18:00:00 29.2 13 Oeste 28 Oeste 0 966 -1.9 25
2019-08-10 17:00:00 28.5 15 Noroeste 25 Oeste 0 966.6 -1.8 25
2019-08-10 16:00:00 27.5 10 Oeste 21 Noroeste 0 967.3 -1.5 25
2019-08-10 15:00:00 27.2 11 Oeste 23 Noroeste 0 967.9 -0.9 23
2019-08-10 14:00:00 25.4 7 Oeste 19 Noroeste 0 968.4 -0.2 36
2019-08-10 13:00:00 23.5 8 Noroeste 17 Noroeste 0 968.8 0 46
2019-08-10 12:00:00 22.2 6 Noroeste 17 Norte 0 968.8 0.5 53
2019-08-10 11:00:00 19.8 6 Noroeste 16 Noroeste 0 968.6 0.5 63
2019-08-10 10:00:00 18.3 7 Noroeste 14 Norte 0 968.8 1 68
2019-08-10 09:00:00 16 6 Sudoeste 13 Oeste 0 968.3 0.8 79
2019-08-10 08:00:00 14.7 4 Sur 16 Oeste 0 968.1 0.2 84
2019-08-10 07:00:00 14.8 5 Oeste 13 Oeste 0 967.8 -0.2 83
2019-08-10 06:00:00 15.3 5 Sudoeste 14 Sudoeste 0 967.5 -0.4 83
2019-08-10 05:00:00 16.3 10 Sudoeste 18 Sudoeste 0 967.9 -0.2 80
2019-08-10 04:00:00 16.8 9 Oeste 18 Oeste 0 968 0 78
2019-08-10 03:00:00 17.4 11 Oeste 17 Sudoeste 0 967.9 0.1 76
2019-08-10 02:00:00 18.1 11 Oeste 23 Oeste 0 968.1 0.8 73
2019-08-10 01:00:00 19.1 12 Oeste 22 Oeste 0 968 1.3 69
2019-08-10 00:00:00 20.3 13 Oeste 21 Oeste 0 967.8 1.4 63
2019-08-09 23:00:00 21.7 12 Sudoeste 18 Sudoeste 0 967.3 1.1 61
2019-08-09 22:00:00 22.4 9 Oeste 22 Oeste 0 966.7 0.5 56
2019-08-09 21:00:00 23.6 14 Oeste 26 Sudoeste 0 966.4 0 55
2019-08-09 20:00:00 24.7 12 Oeste 24 Oeste 0 966.2 -0.5 51
2019-08-09 19:00:00 24.9 15 Oeste 30 Sudoeste 0 966.2 -1.4 48
2019-08-09 18:00:00 24.2 15 Oeste 33 Oeste 0 966.4 -0.8 50
2019-08-09 17:00:00 21.6 14 Sudoeste 30 Oeste 0 966.7 -0.2 66
2019-08-09 16:00:00 20.7 22 Oeste 37 Oeste 0 967.6 1.4 67
2019-08-09 15:00:00 20.6 23 Oeste 39 Oeste 0 967.2 1.4 72
2019-08-09 14:00:00 21.6 19 Oeste 36 Sudoeste 0 966.9 1.5 62
2019-08-09 13:00:00 22.6 13 Sudoeste 24 Oeste 0 966.2 1.7 73
2019-08-09 12:00:00 21.7 8 Oeste 25 Oeste 0 965.8 1.8 79
2019-08-09 11:00:00 22.3 15 Oeste 30 Sudoeste 0 965.4 1.4 78
2019-08-09 10:00:00 23.1 18 Sudoeste 32 Sur 0 964.5 1 79
2019-08-09 09:00:00 22.3 15 Sudoeste 30 Sudoeste 0 964 0.5 82
2019-08-09 08:00:00 21.8 12 Sudoeste 31 Sudoeste 0 964 0.4 83
2019-08-09 07:00:00 21.6 16 Sudoeste 33 Sudoeste 0 963.5 -0.5 84
2019-08-09 06:00:00 21.3 15 Sudoeste 35 Sudoeste 0 963.5 -0.6 85
2019-08-09 05:00:00 21.1 9 Sudoeste 25 Sudoeste 0 963.6 -0.7 85
2019-08-09 04:00:00 21.2 14 Sudoeste 30 Sudoeste 0 964 -0.1 83
2019-08-09 03:00:00 21.4 8 Sudoeste 25 Sudoeste 0 964.1 0.1 80
2019-08-09 02:00:00 21.6 14 Oeste 31 Oeste 0 964.3 0.5 80
2019-08-09 01:00:00 21.8 15 Oeste 27 Oeste 0 964.1 1.2 79
2019-08-09 00:00:00 22.7 15 Oeste 28 Sudoeste 0 964 1.4 76
2019-08-08 23:00:00 24.3 15 Sudoeste 32 Sudoeste 0 963.8 1.6 67
2019-08-08 22:00:00 25.9 16 Sudoeste 38 Sudoeste 0 962.9 0.6 59
2019-08-08 21:00:00 28.2 19 Sudoeste 42 Oeste 0 962.6 0.1 49
2019-08-08 20:00:00 29.6 20 Sudoeste -- -- 0 962.2 -0.6 42
2019-08-08 19:00:00 30.6 19 Sudoeste 44 Sudoeste 0 962.3 -0.8 41
2019-08-08 18:00:00 30.4 21 Sudoeste 38 Sudoeste 0 962.5 -1 42
2019-08-08 17:00:00 30.3 18 Sudoeste 36 Sudoeste 0 962.8 -1 43
2019-08-08 16:00:00 29.9 14 Sur 31 Sur 0 963.1 -1 44
2019-08-08 15:00:00 29.7 14 Sudoeste 30 Sur 0 963.5 -0.4 47
2019-08-08 14:00:00 28 14 Sur 26 Sudoeste 0 963.8 -0.1 52
2019-08-08 13:00:00 26.9 12 Sudoeste 27 Sur 0 964.1 0.2 57
2019-08-08 12:00:00 25.3 4 Oeste 10 Sur 0 963.9 0.2 63
2019-08-08 11:00:00 23.5 4 Noroeste 13 Sur 0 963.9 0.4 76
2019-08-08 10:00:00 22.6 4 Sur 12 Sudoeste 0 963.9 0.5 79
2019-08-08 09:00:00 20.9 3 Sur 14 Sudoeste 0 963.7 0.4 85
2019-08-08 08:00:00 19.8 10 Sur 15 Sudeste 0 963.5 -0.1 89
2019-08-08 07:00:00 19.8 9 Sudoeste 18 Sudoeste 0 963.4 -0.4 88
2019-08-08 06:00:00 19.5 5 Sudoeste 13 Sudoeste 0 963.3 -1 80
2019-08-08 05:00:00 19.9 5 Sudoeste 22 Sur 0 963.6 -0.8 76
2019-08-08 04:00:00 20.2 14 Sudoeste 23 Sudoeste 0 963.8 -0.2 73
2019-08-08 03:00:00 20.8 9 Sudoeste 23 Sudoeste 0 964.3 0.2 68
2019-08-08 02:00:00 21.3 2 Sur 14 Sudoeste 0 964.4 0.6 62
2019-08-08 01:00:00 22.2 8 Sudoeste 27 Sudoeste 0 964 0.6 58
2019-08-08 00:00:00 21.6 6 Sudoeste 14 Sur 0 964.1 0.7 64
2019-08-07 23:00:00 22.8 4 Sur 7 Sur 0 963.8 0.7 59
2019-08-07 22:00:00 24.5 4 Sur 18 Sudoeste 0 963.4 0.1 52
2019-08-07 21:00:00 25.8 12 Oeste 27 Sudoeste 0 963.4 -0.1 48
2019-08-07 20:00:00 26.7 12 Oeste 22 Sudoeste 0 963.1 -0.8 46
2019-08-07 19:00:00 27 10 Sudoeste 21 Sudoeste 0 963.3 -1 46
2019-08-07 18:00:00 26.7 8 Sudoeste 19 Oeste 0 963.5 -1 51
2019-08-07 17:00:00 25.3 11 Oeste 24 Noroeste 0 963.9 0 55
2019-08-07 16:00:00 24.6 9 Sudoeste 20 Noroeste 0 964.3 0.3 59
2019-08-07 15:00:00 23.7 10 Oeste 19 Oeste 0 964.5 0.1 64
2019-08-07 14:00:00 21.4 5 Noroeste 18 Sudoeste 0.2 963.9 -0.1 74
2019-08-07 13:00:00 20.1 8 Oeste 18 Sudoeste 0.2 964 1 79
2019-08-07 12:00:00 19.1 13 Oeste 28 Oeste 0.6 964.4 2 83
2019-08-07 11:00:00 20 14 Oeste 30 Oeste 0.2 964 2.1 79
2019-08-07 10:00:00 20.5 13 Oeste 23 Oeste 0 963 1.5 73
2019-08-07 09:00:00 19.9 10 Sudoeste 21 Oeste 0 962.4 1 73
2019-08-07 08:00:00 19.5 8 Sudoeste 19 Sudoeste 0 961.9 0.6 74
2019-08-07 07:00:00 19 9 Sudoeste 15 Sudoeste 0 961.5 0.3 76
2019-08-07 06:00:00 18.6 3 Noroeste 8 Noroeste 0 961.4 -0.1 80
2019-08-07 05:00:00 18.6 5 Noroeste 12 Noroeste 0 961.3 -0.4 80
2019-08-07 04:00:00 19.8 3 Noroeste 18 Sudoeste 0 961.2 -0.6 70
2019-08-07 03:00:00 20.8 11 Sudoeste 30 Sudoeste 0 961.5 -0.7 65
2019-08-07 02:00:00 21.4 16 Oeste 30 Oeste 0 961.7 -0.3 62
2019-08-07 01:00:00 22.2 13 Sudoeste 22 Oeste 0 961.8 0.4 56
2019-08-07 00:00:00 22.9 11 Sudoeste 27 Sudoeste 0 962.2 1.2 54
2019-08-06 23:00:00 23.4 12 Sudoeste 25 Oeste 0 962 1.2 55
2019-08-06 22:00:00 24 16 Oeste 28 Oeste 0 961.4 0.4 56
2019-08-06 21:00:00 26.3 10 Sudoeste 35 Oeste 0 961 -0.2 45
2019-08-06 20:00:00 28 13 Oeste 31 Oeste 0 960.8 -0.7 39
2019-08-06 19:00:00 28.9 18 Oeste 35 Oeste 0 961 -0.9 40
2019-08-06 18:00:00 30.3 20 Oeste 34 Oeste 0 961.2 -1 34
2019-08-06 17:00:00 30.7 20 Sudoeste 36 Sudoeste 0 961.5 -1.2 35
2019-08-06 16:00:00 32.1 16 Sudoeste 31 Oeste 0 961.9 -1.2 29
2019-08-06 15:00:00 31.6 11 Sudoeste 29 Sudoeste 0 962.2 -1.2 30
2019-08-06 14:00:00 29.8 7 Noroeste 22 Noroeste 0 962.7 -0.6 36
2019-08-06 13:00:00 28.2 9 Oeste 19 Noroeste 0 963.1 0 40
2019-08-06 12:00:00 25.6 3 Oeste 14 Norte 0 963.4 0.3 48
2019-08-06 11:00:00 23.5 7 Norte 12 Nordeste 0 963.3 0.9 55
2019-08-06 10:00:00 21 5 Norte 9 Este 0 963.1 0.4 64
2019-08-06 09:00:00 17.9 7 Noroeste 13 Noroeste 0 963.1 0.3 72
2019-08-06 08:00:00 15.6 5 Sur 12 Sur 0 962.4 -0.1 75
2019-08-06 07:00:00 15.5 6 Sur 10 Noroeste 0 962.7 0.1 73
2019-08-06 06:00:00 16.9 4 Noroeste 7 Noroeste 0 962.8 0 85
2019-08-06 05:00:00 17.8 3 Noroeste 8 Noroeste 0 962.5 -0.8 79
2019-08-06 04:00:00 18.5 3 Noroeste 6 Noroeste 0 962.6 -0.6 74
2019-08-06 03:00:00 19.4 4 Noroeste 8 Sudeste 0 962.8 -0.3 68
2019-08-06 02:00:00 21.4 4 Sudoeste 10 Oeste 0 963.3 0.5 53
2019-08-06 01:00:00 22.2 6 Sudoeste 24 Oeste 0 963.2 0.8 51
2019-08-06 00:00:00 23.7 11 Oeste 26 Oeste 0 963.1 1.1 46
2019-08-05 23:00:00 25.2 16 Oeste 31 Oeste 0 962.8 1 43
2019-08-05 22:00:00 27.8 17 Oeste 32 Oeste 0 962.4 0.6 33
2019-08-05 21:00:00 30.9 17 Oeste 28 Oeste 0 962 0.1 27
2019-08-05 20:00:00 32.4 16 Oeste 31 Oeste 0 961.8 -0.5 24
2019-08-05 19:00:00 33.3 13 Oeste 30 Oeste 0 961.8 -1 22
2019-08-05 18:00:00 33.5 12 Noroeste 28 Oeste 0 961.9 -1.3 23
2019-08-05 17:00:00 33.3 10 Noroeste 28 Oeste 0 962.3 -1.2 19
2019-08-05 16:00:00 32.4 11 Oeste 29 Oeste 0 962.8 -1.3 22
2019-08-05 15:00:00 31.6 13 Oeste 25 Noroeste 0 963.2 -1.1 26
2019-08-05 14:00:00 29.6 8 Norte 20 Oeste 0 963.5 -0.8 29
2019-08-05 13:00:00 27.6 9 Noroeste 20 Noroeste 0 964.1 -0.2 38
2019-08-05 12:00:00 25.4 8 Norte 16 Norte 0 964.3 0.2 44
2019-08-05 11:00:00 22.7 6 Noroeste 15 Noroeste 0 964.3 0.2 52
2019-08-05 10:00:00 21 8 Noroeste 14 Noroeste 0 964.3 0.4 57
2019-08-05 09:00:00 16.3 3 Sur 8 Sudoeste 0 964.1 0.3 68
2019-08-05 08:00:00 13.8 5 Sur 9 Sur 0 964.1 0 70
2019-08-05 07:00:00 13.7 6 Sur 11 Sudoeste 0 963.9 -0.2 67
2019-08-05 06:00:00 14 6 Sudoeste 9 Sudoeste 0 963.8 -0.3 70
2019-08-05 05:00:00 15.1 3 Sur 4 Sudeste 0 964.1 -0.2 77
2019-08-05 04:00:00 16.1 4 Noroeste 6 Noroeste 0 964.1 -0.4 79
2019-08-05 03:00:00 17.2 2 Sudeste 8 Noroeste 0 964.1 -0.4 72
2019-08-05 02:00:00 17.8 3 Noroeste 7 Noroeste 0 964.3 -0.1 73
2019-08-05 01:00:00 19.8 4 Noroeste 14 Oeste 0 964.5 0.6 64
2019-08-05 00:00:00 21.4 9 Oeste 17 Sudoeste 0 964.5 0.9 59
2019-08-04 23:00:00 23.4 6 Sudoeste 31 Oeste 0 964.4 1 52
2019-08-04 22:00:00 25.3 18 Oeste 32 Sudoeste 0 963.9 0.9 45
2019-08-04 21:00:00 27.8 14 Oeste 32 Oeste 0 963.6 0.6 35
2019-08-04 20:00:00 29.7 18 Oeste 34 Noroeste 0 963.4 0.3 33
2019-08-04 19:00:00 30.2 22 Oeste 38 Oeste 0 963 -0.3 33
2019-08-04 18:00:00 32 24 Oeste 37 Oeste 0 963 -0.6 29
2019-08-04 17:00:00 32.9 17 Sudoeste 35 Sudoeste 0 963.1 -0.8 25
2019-08-04 16:00:00 32.9 17 Oeste 36 Oeste 0 963.3 -1 27
2019-08-04 15:00:00 32.5 12 Oeste 28 Oeste 0 963.6 -0.8 25
2019-08-04 14:00:00 31.8 8 Oeste 21 Noroeste 0 963.9 -0.4 26
2019-08-04 13:00:00 29.9 8 Oeste 33 Oeste 0 964.3 0 32
2019-08-04 12:00:00 27.5 12 Norte 21 Norte 0 964.4 0.4 36
2019-08-04 11:00:00 25.3 5 Noroeste 10 Noroeste 0 964.3 0.7 48
2019-08-04 10:00:00 22 3 Norte 10 Sudoeste 0 964.3 1 61
2019-08-04 09:00:00 18.9 5 Sudoeste 8 Sudoeste 0 964 0.7 66
2019-08-04 08:00:00 17.3 3 Noroeste 8 Noroeste 0 963.6 0.4 82
2019-08-04 07:00:00 17.4 6 Sudoeste 9 Sur 0 963.3 0 69
2019-08-04 06:00:00 18 6 Sudoeste 9 Sudoeste 0 963.3 -0.1 68
2019-08-04 05:00:00 18.8 5 Sur 9 Noroeste 0 963.2 -0.2 68
2019-08-04 04:00:00 20.1 5 Oeste 10 Sudoeste 0 963.3 0.1 66
2019-08-04 03:00:00 20.6 2 Noroeste 10 Sudoeste 0 963.4 0.2 66
2019-08-04 02:00:00 22 6 Sudoeste 16 Oeste 0 963.4 0.5 59
2019-08-04 01:00:00 22.8 7 Sudoeste 22 Oeste 0 963.2 1.1 57
2019-08-04 00:00:00 23.8 11 Oeste 27 Sudoeste 0 963.2 1.6 54
2019-08-03 23:00:00 25.3 17 Oeste 35 Sudoeste 0 962.9 1.6 51
2019-08-03 22:00:00 27.4 20 Oeste 39 Oeste 0 962.1 0.6 44
2019-08-03 21:00:00 30.1 21 Oeste 40 Oeste 0 961.6 -0.2 35
2019-08-03 20:00:00 33.5 17 Oeste 36 Sudoeste 0 961.3 -1 27
2019-08-03 19:00:00 34.4 10 Sudoeste 27 Oeste 0 961.5 -1.1 18
2019-08-03 18:00:00 34.5 11 Oeste 22 Oeste 0 961.8 -1.1 18
2019-08-03 17:00:00 33.9 11 Sudoeste 27 Noroeste 0 962.3 -0.7 20
2019-08-03 16:00:00 33.4 10 Sur 28 Oeste 0 962.6 -0.8 23
2019-08-03 15:00:00 32.9 10 Noroeste 23 Noroeste 0 962.9 -0.6 25
2019-08-03 14:00:00 32.8 5 Sur 19 Sudeste 0 963 -0.4 21
2019-08-03 13:00:00 30.9 4 Oeste 15 Noroeste 0 963.4 0.1 28
2019-08-03 12:00:00 28.3 6 Noroeste 14 Noroeste 0 963.5 0.4 38
2019-08-03 11:00:00 25.9 5 Noroeste 10 Norte 0 963.4 0.7 45
2019-08-03 10:00:00 22.3 3 Norte 5 Norte 0 963.3 1.1 56
2019-08-03 09:00:00 17.9 3 Norte 6 Norte 0 963.1 0.9 70
2019-08-03 08:00:00 17.4 3 Oeste 5 Oeste 0 962.7 0.4 69
2019-08-03 07:00:00 18.1 2 Sur 7 Sur 0 962.2 -0.3 65
2019-08-03 06:00:00 19.1 5 Sur 8 Sur 0 962.2 -0.6 60
2019-08-03 05:00:00 19.3 7 Sur 9 Sur 0 962.3 -0.6 59
2019-08-03 04:00:00 19.7 4 Sudoeste 9 Sudoeste 0 962.5 -0.7 59
2019-08-03 03:00:00 20.8 6 Sur 10 Sur 0 962.8 -0.4 58
2019-08-03 02:00:00 22 6 Sudoeste 12 Sur 0 962.9 -0.2 57
2019-08-03 01:00:00 23.1 4 Sudoeste 10 Oeste 0 963.2 0.7 55
2019-08-03 00:00:00 24.5 7 Oeste 24 Sudoeste 0 963.2 1 52
2019-08-02 23:00:00 25.9 12 Oeste 27 Oeste 0 963.1 1.1 48
2019-08-02 22:00:00 27.8 18 Oeste 36 Oeste 0 962.5 0.3 43
2019-08-02 21:00:00 31.2 20 Oeste 34 Oeste 0 962.2 -0.3 35
2019-08-02 20:00:00 34.2 6 Norte 16 Noroeste 0 962 -1 14
2019-08-02 19:00:00 34.1 4 Norte 20 Noroeste 0 962.2 -1.4 15
2019-08-02 18:00:00 34.2 4 Nordeste 24 Noroeste 0 962.5 -1.6 15
2019-08-02 17:00:00 33.8 5 Este 24 Noroeste 0 963 -1.3 15
2019-08-02 16:00:00 33.2 5 Sur 20 Norte 0 963.6 -1 14
2019-08-02 15:00:00 31.2 6 Noroeste 21 Norte 0 964.1 -0.6 20
2019-08-02 14:00:00 30.4 6 Noroeste 17 Oeste 0 964.3 -0.3 23
2019-08-02 13:00:00 28.4 4 Este 13 Norte 0 964.6 0.4 27
2019-08-02 12:00:00 25.8 5 Noroeste 12 Nordeste 0 964.7 0.9 32
2019-08-02 11:00:00 22.9 6 Norte 12 Norte 0 964.6 1.2 41
2019-08-02 10:00:00 20.3 2 Norte 7 Norte 0 964.2 0.9 52
2019-08-02 09:00:00 15.8 2 Sudoeste 6 Sudoeste 0 963.8 0.7 58
2019-08-02 08:00:00 13.7 5 Sur 10 Sudoeste 0 963.4 0 63
2019-08-02 07:00:00 13.6 7 Sudoeste 9 Sudoeste 0 963.3 -0.2 64
2019-08-02 06:00:00 14 6 Sur 9 Sur 0 963.1 -0.5 65
2019-08-02 05:00:00 14.5 5 Sudoeste 8 Sudoeste 0 963.4 -0.4 64
2019-08-02 04:00:00 15.7 4 Sudoeste 8 Sudoeste 0 963.5 -0.3 65
2019-08-02 03:00:00 16.5 5 Oeste 12 Noroeste 0 963.6 -0.1 70
2019-08-02 02:00:00 18 8 Noroeste 13 Norte 0 963.8 0.5 60
2019-08-02 01:00:00 20 4 Noroeste 18 Sudoeste 0 963.8 1 51
2019-08-02 00:00:00 21.6 10 Oeste 29 Sudoeste 0 963.7 1.4 46
2019-08-01 23:00:00 23.6 18 Oeste 30 Oeste 0 963.3 1.4 40
2019-08-01 22:00:00 25.8 14 Oeste 30 Oeste 0 962.8 1.1 29
2019-08-01 21:00:00 28.5 17 Oeste 33 Oeste 0 962.3 0.6 25
2019-08-01 20:00:00 29.9 17 Oeste 39 Oeste 0 961.9 0.2 22
2019-08-01 19:00:00 30.2 23 Oeste 44 Noroeste 0 961.7 -0.2 22
2019-08-01 18:00:00 31.5 21 Oeste 40 Oeste 0 961.7 -0.6 21
2019-08-01 17:00:00 32.3 16 Oeste 37 Oeste 0 961.7 -0.8 20
2019-08-01 16:00:00 32.3 14 Oeste 29 Oeste 0 961.9 -0.6 17
2019-08-01 15:00:00 31.3 10 Oeste -- -- 0 962.3 -0.2 21
2019-08-01 14:00:00 30.9 14 Oeste 25 Noroeste 0 962.5 0.3 23
2019-08-01 13:00:00 29.2 11 Noroeste 22 Oeste 0 962.5 0.5 28
2019-08-01 12:00:00 27.4 8 Noroeste 21 Noroeste 0 962.5 0.9 32
2019-08-01 11:00:00 25.5 8 Norte 14 Norte 0 962.2 1.1 36
2019-08-01 10:00:00 23.3 4 Noroeste 8 Noroeste 0 962 1.1 43
2019-08-01 09:00:00 19.7 6 Sudoeste 9 Sur 0 961.6 0.8 53
2019-08-01 08:00:00 16.9 8 Sudoeste 12 Sudoeste 0 961.1 0.3 59
2019-08-01 07:00:00 17.3 7 Sudoeste 10 Sudoeste 0 960.9 0.1 58
2019-08-01 06:00:00 19.1 6 Sudoeste 11 Sudoeste 0 960.8 -0.2 53
2019-08-01 05:00:00 19.6 8 Sudoeste 13 Sudoeste 0 960.8 -0.3 52
2019-08-01 04:00:00 20.2 7 Sur 12 Sur 0 960.8 -0.5 51
2019-08-01 03:00:00 20.2 7 Sudoeste 10 Sudoeste 0 961 -0.4 52
2019-08-01 02:00:00 21.4 6 Sudoeste 9 Sudoeste 0 961.1 -0.1 49
2019-08-01 01:00:00 23.3 5 Sur 18 Sudoeste 0 961.3 0.9 44
2019-08-01 00:00:00 24.8 10 Sudoeste 22 Sudoeste 0 961.4 1.1 41
2019-07-31 23:00:00 26 13 Oeste 26 Oeste 0 961.2 0.9 39
2019-07-31 22:00:00 27.7 13 Oeste 27 Oeste 0 960.4 0.3 28
2019-07-31 21:00:00 28.7 14 Oeste 33 Oeste 0 960.3 0.3 27
2019-07-31 20:00:00 28.6 19 Oeste 35 Oeste 0 960.3 -0.1 29
2019-07-31 19:00:00 30 22 Oeste 45 Oeste 0 960.1 -1 26
2019-07-31 18:00:00 33.3 13 Sudoeste 29 Sudoeste 0 960 -1.7 12
2019-07-31 17:00:00 33.4 7 Noroeste 28 Oeste 0 960.4 -1.8 15
2019-07-31 16:00:00 33 13 Oeste 26 Oeste 0 961.1 -1.5 17
2019-07-31 15:00:00 31.1 9 Oeste 22 Oeste 0 961.7 -1.1 19
2019-07-31 14:00:00 29.6 5 Noroeste 16 Oeste 0 962.2 -0.7 21
2019-07-31 13:00:00 28.6 7 Norte 19 Noroeste 0 962.6 0 23
2019-07-31 12:00:00 26 9 Nordeste 19 Norte 0 962.8 0.2 29
2019-07-31 11:00:00 23.7 7 Norte 14 Norte 0 962.9 0.5 34
2019-07-31 10:00:00 21.2 6 Noroeste 14 Oeste 0 962.6 0.1 38
2019-07-31 09:00:00 17.2 5 Sudoeste 10 Sudoeste 0 962.6 0 50
2019-07-31 08:00:00 14.6 8 Sudoeste 10 Sudoeste 0 962.4 -0.6 57
2019-07-31 07:00:00 16.3 5 Sudoeste 12 Sudoeste 0 962.5 -0.9 53
2019-07-31 06:00:00 17.2 6 Sudoeste 13 Sudoeste 0 962.6 -1 50
2019-07-31 05:00:00 18.4 7 Sudoeste 15 Oeste 0 963 -1.1 47
2019-07-31 04:00:00 19.6 8 Oeste 20 Oeste 0 963.4 -0.6 45
2019-07-31 03:00:00 20.3 12 Oeste 20 Oeste 0 963.6 -0.1 43
2019-07-31 02:00:00 20.6 9 Oeste 18 Oeste 0 964.1 0.5 43
2019-07-31 01:00:00 21.5 8 Oeste 18 Oeste 0 964 1 41
2019-07-31 00:00:00 22.9 11 Oeste 18 Oeste 0 963.7 1.1 28
2019-07-30 23:00:00 24.4 8 Noroeste 22 Noroeste 0 963.6 1 20
2019-07-30 22:00:00 26.4 12 Noroeste 30 Noroeste 0 963 0.1 19
2019-07-30 21:00:00 29.3 15 Norte 33 Norte 0 962.6 -0.8 14
2019-07-30 20:00:00 30.4 15 Norte 34 Norte 0 962.6 -1.4 13
2019-07-30 19:00:00 30.2 18 Noroeste 33 Norte 0 962.9 -1.7 15
2019-07-30 18:00:00 30.4 15 Norte 33 Noroeste 0 963.4 -1.9 15
2019-07-30 17:00:00 29.2 13 Norte 35 Noroeste 0 964 -1.8 18
2019-07-30 16:00:00 28 15 Noroeste 38 Norte 0 964.6 -1.7 20
2019-07-30 15:00:00 27.1 16 Noroeste 30 Norte 0 965.3 -1.3 21
2019-07-30 14:00:00 25.1 14 Noroeste 33 Noroeste 0 965.8 -0.9 25
2019-07-30 13:00:00 23.3 13 Noroeste 31 Norte 0 966.3 -0.4 30
2019-07-30 12:00:00 21 14 Noroeste 27 Noroeste 0 966.6 0.2 37
2019-07-30 11:00:00 19.2 13 Noroeste 28 Noroeste 0 966.7 0.8 43
2019-07-30 10:00:00 17 12 Noroeste 27 Noroeste 0 966.7 0.8 52
2019-07-30 09:00:00 14.9 15 Noroeste 27 Noroeste 0 966.4 0.8 61
2019-07-30 08:00:00 13.6 13 Oeste 26 Oeste 0 965.9 0.2 65
2019-07-30 07:00:00 14.1 12 Noroeste 27 Noroeste 0 965.9 0.3 64
2019-07-30 06:00:00 14.5 18 Noroeste 27 Noroeste 0 965.6 -0.2 64
2019-07-30 05:00:00 15.1 17 Noroeste 28 Oeste 0 965.7 -0.3 63
2019-07-30 04:00:00 15.4 12 Noroeste 30 Noroeste 0 965.6 -0.1 63
2019-07-30 03:00:00 15.5 12 Oeste 24 Oeste 0 965.8 0.5 67
2019-07-30 02:00:00 16.1 12 Oeste 23 Oeste 0 966 1 66
2019-07-30 01:00:00 16.9 13 Oeste 26 Oeste 0 965.7 1.6 63
2019-07-30 00:00:00 18 15 Oeste 31 Oeste 0 965.3 1.8 57
2019-07-29 23:00:00 19.5 15 Oeste 34 Oeste 0 965 2 48
2019-07-29 22:00:00 21.3 22 Oeste 40 Noroeste 0 964.1 1.3 41
2019-07-29 21:00:00 23.9 22 Oeste 42 Noroeste 0 963.5 0.8 33
2019-07-29 20:00:00 25.7 25 Noroeste 45 Noroeste 0 963 0.4 27
2019-07-29 19:00:00 27.3 22 Oeste 44 Oeste 0 962.8 -0.1 24
2019-07-29 18:00:00 27.7 23 Oeste 45 Oeste 0 962.7 -0.2 25
2019-07-29 17:00:00 28.5 -- -- -- -- 0 962.6 -0.3 23
2019-07-29 16:00:00 27.8 18 Oeste 40 Oeste 0 962.9 -0.2 28
2019-07-29 15:00:00 26.9 18 Oeste -- -- 0 962.9 0 32
2019-07-29 14:00:00 26.1 16 Oeste 34 Noroeste 0 962.9 0.1 41
2019-07-29 13:00:00 24.6 13 Oeste 29 Noroeste 0 963.1 0.7 48
2019-07-29 12:00:00 22.9 15 Oeste 32 Oeste 0 962.9 0.8 56
2019-07-29 11:00:00 21.1 19 Noroeste 33 Oeste 0 962.8 1.3 64
2019-07-29 10:00:00 19.8 18 Oeste 28 Oeste 0 962.4 1.6 67
2019-07-29 09:00:00 18.7 14 Oeste 25 Oeste 0 962.1 1.5 60
2019-07-29 08:00:00 17 11 Oeste 27 Oeste 0 961.5 0.9 56
2019-07-29 07:00:00 17.1 11 Oeste 19 Noroeste 0 960.8 0.2 45
2019-07-29 06:00:00 17.4 10 Oeste 21 Oeste 0 960.6 0 40
2019-07-29 05:00:00 17.5 8 Oeste 23 Oeste 0 960.6 -0.1 45
2019-07-29 04:00:00 18 14 Oeste 27 Oeste 0 960.6 0 48
2019-07-29 03:00:00 18.2 12 Oeste 19 Oeste 0 960.6 -0.2 50
2019-07-29 02:00:00 19.1 10 Sudoeste 24 Sudoeste 0 960.7 0.2 47
2019-07-29 01:00:00 20.2 13 Sudoeste 23 Sudoeste 0 960.6 0.8 48
2019-07-29 00:00:00 21.6 13 Oeste 33 Oeste 0 960.8 1.5 51
2019-07-28 23:00:00 23.4 16 Oeste 38 Oeste 0 960.5 1.7 52
2019-07-28 22:00:00 25.6 21 Oeste 38 Oeste 0 959.8 0.9 43
2019-07-28 21:00:00 28.4 17 Oeste 33 Oeste 0 959.3 0.4 33
2019-07-28 20:00:00 30.1 17 Oeste 31 Oeste 0 958.8 -0.6 28
2019-07-28 19:00:00 30.5 16 Oeste 30 Oeste 0 958.9 -1 27
2019-07-28 18:00:00 30.9 13 Noroeste 30 Noroeste 0 958.9 -1.4 27
2019-07-28 17:00:00 31.3 8 Sudoeste 21 Oeste 0 959.4 -1.3 26
2019-07-28 16:00:00 30.2 9 Noroeste 28 Oeste 0 959.9 -1.2 29
2019-07-28 15:00:00 29.3 6 Sudoeste 18 Oeste 0 960.3 -1 29
2019-07-28 14:00:00 28 7 Norte 21 Noroeste 0 960.7 -0.6 33
2019-07-28 13:00:00 26.9 5 Este 15 Nordeste 0 961.1 -0.1 38
2019-07-28 12:00:00 25.5 6 Norte 16 Norte 0 961.3 0.4 44
2019-07-28 11:00:00 22.6 5 Oeste 10 Noroeste 0 961.3 0.5 52
2019-07-28 10:00:00 21 5 Noroeste 10 Noroeste 0 961.2 0.7 61
2019-07-28 09:00:00 17.8 6 Sudoeste 10 Sudoeste 0 960.9 0.5 74
2019-07-28 08:00:00 15.8 6 Sudoeste 10 Sudoeste 0 960.8 0.3 82
2019-07-28 07:00:00 16.4 6 Sudoeste 13 Sudoeste 0 960.5 -0.1 80
2019-07-28 06:00:00 16.5 5 Sudoeste 10 Sudoeste 0 960.4 -0.5 80
2019-07-28 05:00:00 16.8 4 Sudoeste 9 Sudoeste 0 960.5 -0.4 79
2019-07-28 04:00:00 17 5 Sudoeste 12 Oeste 0 960.6 -0.3 78
2019-07-28 03:00:00 18 6 Oeste 12 Oeste 0 960.9 -0.1 77
2019-07-28 02:00:00 18.2 6 Oeste 18 Oeste 0 960.9 0.3 76
2019-07-28 01:00:00 18.8 10 Oeste 24 Oeste 0 960.9 0.8 74
2019-07-28 00:00:00 19.7 14 Oeste 27 Sudoeste 0 961 1.4 69
2019-07-27 23:00:00 20.8 16 Oeste 31 Sudoeste 0 960.6 1.2 63
2019-07-26 12:00:00 22.3 11 Oeste 28 Noroeste 0 964.7 0.6 45
2019-07-26 11:00:00 20.2 14 Noroeste 28 Noroeste 0 964.6 0.7 51
2019-07-26 10:00:00 18.5 11 Noroeste 30 Oeste 0 964.3 0.6 56
2019-07-26 09:00:00 16.8 10 Oeste 21 Oeste 0 964.1 0.7 64
2019-07-26 08:00:00 15.5 12 Oeste 21 Oeste 0 963.9 0.4 73
2019-07-26 07:00:00 15.3 13 Oeste 27 Oeste 0 963.7 0.3 75
2019-07-26 06:00:00 15.7 15 Oeste 27 Oeste 0 963.4 -0.2 74
2019-07-26 05:00:00 15.8 12 Oeste 27 Oeste 0 963.5 -0.3 77
2019-07-26 04:00:00 16.5 12 Oeste 34 Oeste 0 963.4 -0.4 78
2019-07-26 03:00:00 17.6 17 Oeste 31 Oeste 0 963.6 -0.3 75
2019-07-26 02:00:00 18.5 15 Oeste 35 Oeste 0 963.8 0.2 71
2019-07-26 01:00:00 19.8 18 Oeste 35 Oeste 0 963.8 0.4 69
2019-07-26 00:00:00 20.4 18 Oeste 39 Oeste 0 963.9 0.9 71
2019-07-25 23:00:00 21 18 Oeste 36 Oeste 0 963.6 1.4 71
2019-07-25 22:00:00 22.7 19 Oeste 39 Oeste 0 963.4 1.2 69
2019-07-25 21:00:00 24.3 23 Oeste 42 Oeste 0 963 0.4 65
2019-07-25 20:00:00 28.6 14 Sudoeste 36 Sudoeste 0 962.2 -0.6 39
2019-07-25 19:00:00 30 16 Oeste 35 Sudoeste 0 962.2 -1.1 33
2019-07-25 18:00:00 31 15 Sudoeste 35 Sudoeste 0 962.6 -0.8 31
2019-07-25 17:00:00 30.6 16 Sudoeste 28 Sudoeste 0 962.8 -0.7 35
2019-07-25 16:00:00 30.6 16 Oeste 38 Oeste 0 963.3 -0.6 32
2019-07-25 15:00:00 29.8 21 Oeste -- -- 0 963.4 -0.6 32
2019-07-25 14:00:00 28.7 10 Norte 33 Norte 0 963.5 -0.3 41
2019-07-25 13:00:00 26.9 14 Noroeste 28 Norte 0 963.9 0.2 51
2019-07-25 12:00:00 23.3 15 Noroeste 24 Noroeste 0 964 0.5 67
2019-07-25 11:00:00 23.5 14 Noroeste 26 Noroeste 0 963.8 0.8 64
2019-07-25 10:00:00 23.6 7 Noroeste 17 Oeste 0 963.7 1.3 63
2019-07-25 09:00:00 22.5 9 Oeste 18 Sudoeste 0 963.5 1.5 62
2019-07-25 08:00:00 20.4 7 Sudoeste 13 Sudoeste 0 963 0.6 65
2019-07-25 07:00:00 21.3 7 Sudoeste 14 Sudoeste 0 962.4 0 63
2019-07-25 06:00:00 22 9 Sudoeste 17 Sudoeste 0 962 -0.5 59
2019-07-25 05:00:00 22.3 9 Sudoeste 17 Sudoeste 0 962.4 -0.4 53
2019-07-25 04:00:00 22.4 5 Sudoeste 12 Sudoeste 0 962.4 -0.5 49
2019-07-25 03:00:00 23.1 8 Sudoeste 21 Sudoeste 0 962.5 -0.2 45
2019-07-25 02:00:00 24.3 12 Sudoeste 24 Sudoeste 0 962.8 0.4 43
2019-07-25 01:00:00 24.7 13 Oeste 20 Oeste 0 962.9 1.2 45
2019-07-25 00:00:00 26.1 11 Oeste 30 Oeste 0 962.7 1.4 39
2019-07-24 23:00:00 27.8 16 Oeste 33 Oeste 0 962.4 1.4 35
2019-07-24 22:00:00 29.7 20 Oeste 40 Oeste 0 961.7 0.5 33
2019-07-24 21:00:00 32.5 20 Oeste 37 Oeste 0 961.3 -0.2 21
2019-07-24 20:00:00 34.7 17 Sudoeste 32 Sudoeste 0 961 -0.9 20
2019-07-24 19:00:00 35.2 14 Sudoeste 32 Oeste 0 961.2 -1 21
2019-07-24 18:00:00 35.6 18 Sudoeste 39 Sur 0 961.5 -1.3 20
2019-07-24 17:00:00 36 12 Sur 35 Sudoeste 0 961.9 -1.4 17
2019-07-24 16:00:00 35.6 13 Sur -- -- 0 962.2 -1.5 20
2019-07-24 15:00:00 34.9 9 Sudoeste 21 Oeste 0 962.8 -1.1 22
2019-07-24 14:00:00 33.4 7 Norte 19 Noroeste 0 963.3 -0.6 25
2019-07-24 13:00:00 31.5 7 Noroeste 19 Noroeste 0 963.7 0 29
2019-07-24 12:00:00 28.6 10 Noroeste 18 Noroeste 0.2 963.9 0.6 36
2019-07-24 11:00:00 26.9 7 Norte 13 Norte 0 963.9 0.9 39
2019-07-24 10:00:00 24.4 6 Noroeste 9 Noroeste 0 963.7 0.6 46
2019-07-24 09:00:00 22.2 3 Norte 6 Sudoeste 0 963.3 0.1 50
2019-07-24 08:00:00 20 3 Este 10 Sudoeste 0 963 -0.5 54
2019-07-24 07:00:00 19.8 6 Sudoeste 11 Nordeste 0 963.1 -0.7 55
2019-07-24 06:00:00 20.4 4 Sudoeste 10 Sur 0 963.2 -0.7 54
2019-07-24 05:00:00 20.5 4 Noroeste 13 Sur 0 963.5 -0.8 57
2019-07-24 04:00:00 21.2 6 Noroeste 9 Noroeste 0 963.8 -0.7 54
2019-07-24 03:00:00 22.6 5 Sur 9 Sur 0 963.9 -0.5 50
2019-07-24 02:00:00 23.8 5 Sur 9 Sur 0 964.3 0.5 46
2019-07-24 01:00:00 24.2 6 Sur 17 Sudoeste 0 964.5 1.3 48
2019-07-24 00:00:00 25.3 9 Sudoeste 21 Oeste 0 964.4 1.5 49